sensor_id;sensor_type;location;lat;lon;timestamp;P1;durP1;ratioP1;P2;durP2;ratioP2
55815;SDS011;41744;52.404;16.942;2022-07-06T00:00:43;4.55;;;3.28;;
55815;SDS011;41744;52.404;16.942;2022-07-06T00:03:09;6.95;;;3.20;;
55815;SDS011;41744;52.404;16.942;2022-07-06T00:05:35;7.93;;;3.30;;
55815;SDS011;41744;52.404;16.942;2022-07-06T00:08:02;5.53;;;2.97;;
55815;SDS011;41744;52.404;16.942;2022-07-06T00:13:31;4.60;;;3.13;;
55815;SDS011;41744;52.404;16.942;2022-07-06T00:15:57;6.03;;;3.40;;
55815;SDS011;41744;52.404;16.942;2022-07-06T00:18:23;6.50;;;3.15;;
55815;SDS011;41744;52.404;16.942;2022-07-06T00:23:53;9.23;;;3.85;;
55815;SDS011;41744;52.404;16.942;2022-07-06T00:26:19;5.28;;;3.50;;
55815;SDS011;41744;52.404;16.942;2022-07-06T00:28:45;10.02;;;3.72;;
55815;SDS011;41744;52.404;16.942;2022-07-06T00:31:11;5.18;;;3.55;;
55815;SDS011;41744;52.404;16.942;2022-07-06T00:33:37;5.10;;;3.15;;
55815;SDS011;41744;52.404;16.942;2022-07-06T00:36:03;5.32;;;3.20;;
55815;SDS011;41744;52.404;16.942;2022-07-06T00:38:29;8.52;;;3.28;;
55815;SDS011;41744;52.404;16.942;2022-07-06T00:43:59;4.72;;;3.20;;
55815;SDS011;41744;52.404;16.942;2022-07-06T00:46:27;10.93;;;3.33;;
55815;SDS011;41744;52.404;16.942;2022-07-06T00:48:53;8.40;;;3.63;;
55815;SDS011;41744;52.404;16.942;2022-07-06T00:51:19;7.75;;;3.13;;
55815;SDS011;41744;52.404;16.942;2022-07-06T00:53:45;7.35;;;3.33;;
55815;SDS011;41744;52.404;16.942;2022-07-06T00:56:12;4.80;;;3.20;;
55815;SDS011;41744;52.404;16.942;2022-07-06T00:58:38;14.07;;;3.80;;
55815;SDS011;41744;52.404;16.942;2022-07-06T01:01:04;8.35;;;3.95;;
55815;SDS011;41744;52.404;16.942;2022-07-06T01:03:30;8.02;;;4.68;;
55815;SDS011;41744;52.404;16.942;2022-07-06T01:05:56;11.52;;;4.70;;
55815;SDS011;41744;52.404;16.942;2022-07-06T01:08:22;8.38;;;4.63;;
55815;SDS011;41744;52.404;16.942;2022-07-06T01:13:52;14.25;;;6.25;;
55815;SDS011;41744;52.404;16.942;2022-07-06T01:16:18;14.00;;;5.93;;
55815;SDS011;41744;52.404;16.942;2022-07-06T01:18:44;10.73;;;4.93;;
55815;SDS011;41744;52.404;16.942;2022-07-06T01:21:11;8.77;;;4.47;;
55815;SDS011;41744;52.404;16.942;2022-07-06T01:23:44;8.18;;;4.40;;
55815;SDS011;41744;52.404;16.942;2022-07-06T01:26:11;8.55;;;4.63;;
55815;SDS011;41744;52.404;16.942;2022-07-06T01:28:38;12.63;;;5.55;;
55815;SDS011;41744;52.404;16.942;2022-07-06T01:34:07;12.65;;;5.25;;
55815;SDS011;41744;52.404;16.942;2022-07-06T01:36:34;9.27;;;4.68;;
55815;SDS011;41744;52.404;16.942;2022-07-06T01:39:00;11.63;;;4.85;;
55815;SDS011;41744;52.404;16.942;2022-07-06T01:41:26;10.55;;;4.25;;
55815;SDS011;41744;52.404;16.942;2022-07-06T01:43:52;10.10;;;4.32;;
55815;SDS011;41744;52.404;16.942;2022-07-06T01:46:18;14.30;;;5.80;;
55815;SDS011;41744;52.404;16.942;2022-07-06T01:48:45;12.13;;;5.00;;
55815;SDS011;41744;52.404;16.942;2022-07-06T01:51:11;9.98;;;4.82;;
55815;SDS011;41744;52.404;16.942;2022-07-06T01:53:37;8.50;;;4.32;;
55815;SDS011;41744;52.404;16.942;2022-07-06T01:56:04;7.00;;;3.65;;
55815;SDS011;41744;52.404;16.942;2022-07-06T01:58:33;11.00;;;3.88;;
55815;SDS011;41744;52.404;16.942;2022-07-06T02:04:05;8.43;;;3.78;;
55815;SDS011;41744;52.404;16.942;2022-07-06T02:06:31;10.50;;;3.80;;
55815;SDS011;41744;52.404;16.942;2022-07-06T02:08:57;8.55;;;3.95;;
55815;SDS011;41744;52.404;16.942;2022-07-06T02:11:23;6.53;;;3.55;;
55815;SDS011;41744;52.404;16.942;2022-07-06T02:13:49;8.68;;;3.90;;
55815;SDS011;41744;52.404;16.942;2022-07-06T02:16:15;5.95;;;3.58;;
55815;SDS011;41744;52.404;16.942;2022-07-06T02:18:41;5.00;;;3.65;;
55815;SDS011;41744;52.404;16.942;2022-07-06T02:21:07;8.60;;;3.85;;
55815;SDS011;41744;52.404;16.942;2022-07-06T02:23:33;9.15;;;4.13;;
55815;SDS011;41744;52.404;16.942;2022-07-06T02:25:59;6.78;;;3.53;;
55815;SDS011;41744;52.404;16.942;2022-07-06T02:28:25;8.25;;;3.70;;
55815;SDS011;41744;52.404;16.942;2022-07-06T02:33:54;11.02;;;3.60;;
55815;SDS011;41744;52.404;16.942;2022-07-06T02:36:20;8.38;;;4.10;;
55815;SDS011;41744;52.404;16.942;2022-07-06T02:38:46;8.30;;;3.70;;
55815;SDS011;41744;52.404;16.942;2022-07-06T02:41:12;6.90;;;3.78;;
55815;SDS011;41744;52.404;16.942;2022-07-06T02:43:38;8.77;;;3.63;;
55815;SDS011;41744;52.404;16.942;2022-07-06T02:46:05;6.57;;;3.63;;
55815;SDS011;41744;52.404;16.942;2022-07-06T02:48:30;8.75;;;3.85;;
55815;SDS011;41744;52.404;16.942;2022-07-06T02:50:56;4.43;;;3.70;;
55815;SDS011;41744;52.404;16.942;2022-07-06T02:53:23;5.55;;;3.65;;
55815;SDS011;41744;52.404;16.942;2022-07-06T02:55:49;6.32;;;3.92;;
55815;SDS011;41744;52.404;16.942;2022-07-06T02:58:15;6.28;;;3.88;;
55815;SDS011;41744;52.404;16.942;2022-07-06T03:03:45;8.27;;;3.78;;
55815;SDS011;41744;52.404;16.942;2022-07-06T03:06:11;5.90;;;3.70;;
55815;SDS011;41744;52.404;16.942;2022-07-06T03:08:37;5.30;;;3.65;;
55815;SDS011;41744;52.404;16.942;2022-07-06T03:11:03;6.40;;;3.80;;
55815;SDS011;41744;52.404;16.942;2022-07-06T03:13:29;4.63;;;3.50;;
55815;SDS011;41744;52.404;16.942;2022-07-06T03:15:55;4.85;;;3.70;;
55815;SDS011;41744;52.404;16.942;2022-07-06T03:18:21;4.78;;;3.72;;
55815;SDS011;41744;52.404;16.942;2022-07-06T03:20:47;9.20;;;3.75;;
55815;SDS011;41744;52.404;16.942;2022-07-06T03:23:13;7.78;;;4.13;;
55815;SDS011;41744;52.404;16.942;2022-07-06T03:25:39;9.02;;;4.28;;
55815;SDS011;41744;52.404;16.942;2022-07-06T03:28:05;7.53;;;3.95;;
55815;SDS011;41744;52.404;16.942;2022-07-06T03:33:35;8.05;;;3.95;;
55815;SDS011;41744;52.404;16.942;2022-07-06T03:36:04;9.50;;;4.20;;
55815;SDS011;41744;52.404;16.942;2022-07-06T03:38:30;7.03;;;3.90;;
55815;SDS011;41744;52.404;16.942;2022-07-06T03:40:56;5.70;;;3.67;;
55815;SDS011;41744;52.404;16.942;2022-07-06T03:43:24;8.02;;;4.38;;
55815;SDS011;41744;52.404;16.942;2022-07-06T03:45:50;7.20;;;4.28;;
55815;SDS011;41744;52.404;16.942;2022-07-06T03:48:16;8.45;;;4.50;;
55815;SDS011;41744;52.404;16.942;2022-07-06T03:50:42;7.95;;;4.20;;
55815;SDS011;41744;52.404;16.942;2022-07-06T03:53:08;6.13;;;3.67;;
55815;SDS011;41744;52.404;16.942;2022-07-06T03:55:34;8.95;;;4.22;;
55815;SDS011;41744;52.404;16.942;2022-07-06T03:58:00;8.63;;;4.13;;
55815;SDS011;41744;52.404;16.942;2022-07-06T04:03:30;8.82;;;4.53;;
55815;SDS011;41744;52.404;16.942;2022-07-06T04:05:56;9.07;;;4.25;;
55815;SDS011;41744;52.404;16.942;2022-07-06T04:08:22;6.75;;;4.22;;
55815;SDS011;41744;52.404;16.942;2022-07-06T04:10:48;7.15;;;4.18;;
55815;SDS011;41744;52.404;16.942;2022-07-06T04:13:14;5.82;;;4.32;;
55815;SDS011;41744;52.404;16.942;2022-07-06T04:15:40;6.93;;;4.20;;
55815;SDS011;41744;52.404;16.942;2022-07-06T04:18:06;10.02;;;4.30;;
55815;SDS011;41744;52.404;16.942;2022-07-06T04:20:32;9.27;;;4.45;;
55815;SDS011;41744;52.404;16.942;2022-07-06T04:22:58;9.40;;;4.35;;
55815;SDS011;41744;52.404;16.942;2022-07-06T04:25:24;5.95;;;4.00;;
55815;SDS011;41744;52.404;16.942;2022-07-06T04:27:50;7.40;;;4.68;;
55815;SDS011;41744;52.404;16.942;2022-07-06T04:33:20;8.23;;;4.43;;
55815;SDS011;41744;52.404;16.942;2022-07-06T04:35:46;8.88;;;4.55;;
55815;SDS011;41744;52.404;16.942;2022-07-06T04:38:12;13.88;;;4.53;;
55815;SDS011;41744;52.404;16.942;2022-07-06T04:40:38;6.00;;;4.32;;
55815;SDS011;41744;52.404;16.942;2022-07-06T04:43:04;10.02;;;5.47;;
55815;SDS011;41744;52.404;16.942;2022-07-06T04:45:30;7.97;;;4.32;;
55815;SDS011;41744;52.404;16.942;2022-07-06T04:47:56;7.72;;;4.55;;
55815;SDS011;41744;52.404;16.942;2022-07-06T04:50:25;6.13;;;4.05;;
55815;SDS011;41744;52.404;16.942;2022-07-06T04:52:51;11.65;;;4.63;;
55815;SDS011;41744;52.404;16.942;2022-07-06T04:55:17;6.70;;;4.00;;
55815;SDS011;41744;52.404;16.942;2022-07-06T04:57:43;8.10;;;4.82;;
55815;SDS011;41744;52.404;16.942;2022-07-06T05:03:13;6.90;;;3.60;;
55815;SDS011;41744;52.404;16.942;2022-07-06T05:05:39;9.80;;;3.90;;
55815;SDS011;41744;52.404;16.942;2022-07-06T05:08:05;7.35;;;3.78;;
55815;SDS011;41744;52.404;16.942;2022-07-06T05:10:31;5.47;;;3.10;;
55815;SDS011;41744;52.404;16.942;2022-07-06T05:12:57;6.63;;;3.33;;
55815;SDS011;41744;52.404;16.942;2022-07-06T05:15:23;5.85;;;3.28;;
55815;SDS011;41744;52.404;16.942;2022-07-06T05:17:49;5.13;;;3.03;;
55815;SDS011;41744;52.404;16.942;2022-07-06T05:20:15;5.70;;;2.80;;
55815;SDS011;41744;52.404;16.942;2022-07-06T05:22:41;5.60;;;3.28;;
55815;SDS011;41744;52.404;16.942;2022-07-06T05:25:07;5.68;;;2.90;;
55815;SDS011;41744;52.404;16.942;2022-07-06T05:27:33;5.43;;;3.40;;
55815;SDS011;41744;52.404;16.942;2022-07-06T05:33:12;6.80;;;3.20;;
55815;SDS011;41744;52.404;16.942;2022-07-06T05:35:38;6.85;;;3.30;;
55815;SDS011;41744;52.404;16.942;2022-07-06T05:38:06;7.07;;;3.30;;
55815;SDS011;41744;52.404;16.942;2022-07-06T05:40:32;8.00;;;2.78;;
55815;SDS011;41744;52.404;16.942;2022-07-06T05:42:58;8.00;;;2.83;;
55815;SDS011;41744;52.404;16.942;2022-07-06T05:45:24;6.40;;;3.08;;
55815;SDS011;41744;52.404;16.942;2022-07-06T05:47:51;6.93;;;2.58;;
55815;SDS011;41744;52.404;16.942;2022-07-06T05:53:39;4.63;;;2.50;;
55815;SDS011;41744;52.404;16.942;2022-07-06T05:56:05;6.43;;;2.50;;
55815;SDS011;41744;52.404;16.942;2022-07-06T05:58:34;3.15;;;2.17;;
55815;SDS011;41744;52.404;16.942;2022-07-06T06:04:03;7.18;;;2.70;;
55815;SDS011;41744;52.404;16.942;2022-07-06T06:06:29;4.88;;;2.70;;
55815;SDS011;41744;52.404;16.942;2022-07-06T06:08:56;5.32;;;2.88;;
55815;SDS011;41744;52.404;16.942;2022-07-06T06:11:22;10.00;;;3.45;;
55815;SDS011;41744;52.404;16.942;2022-07-06T06:13:50;8.80;;;2.90;;
55815;SDS011;41744;52.404;16.942;2022-07-06T06:16:16;7.07;;;2.88;;
55815;SDS011;41744;52.404;16.942;2022-07-06T06:18:45;5.25;;;2.60;;
55815;SDS011;41744;52.404;16.942;2022-07-06T06:21:11;4.72;;;2.42;;
55815;SDS011;41744;52.404;16.942;2022-07-06T06:23:37;4.30;;;2.63;;
55815;SDS011;41744;52.404;16.942;2022-07-06T06:26:03;11.10;;;2.80;;
55815;SDS011;41744;52.404;16.942;2022-07-06T06:28:29;6.68;;;2.80;;
55815;SDS011;41744;52.404;16.942;2022-07-06T06:33:59;8.65;;;2.83;;
55815;SDS011;41744;52.404;16.942;2022-07-06T06:36:25;4.78;;;2.38;;
55815;SDS011;41744;52.404;16.942;2022-07-06T06:38:51;7.25;;;1.95;;
55815;SDS011;41744;52.404;16.942;2022-07-06T06:41:17;5.72;;;2.05;;
55815;SDS011;41744;52.404;16.942;2022-07-06T06:43:48;5.32;;;2.00;;
55815;SDS011;41744;52.404;16.942;2022-07-06T06:46:14;5.15;;;2.28;;
55815;SDS011;41744;52.404;16.942;2022-07-06T06:48:40;7.78;;;2.33;;
55815;SDS011;41744;52.404;16.942;2022-07-06T06:54:10;4.32;;;2.35;;
55815;SDS011;41744;52.404;16.942;2022-07-06T06:56:36;4.88;;;2.33;;
55815;SDS011;41744;52.404;16.942;2022-07-06T06:59:02;8.70;;;2.40;;
55815;SDS011;41744;52.404;16.942;2022-07-06T07:01:28;7.57;;;2.40;;
55815;SDS011;41744;52.404;16.942;2022-07-06T07:03:54;8.35;;;3.08;;
55815;SDS011;41744;52.404;16.942;2022-07-06T07:06:21;5.65;;;2.63;;
55815;SDS011;41744;52.404;16.942;2022-07-06T07:08:47;7.85;;;3.08;;
55815;SDS011;41744;52.404;16.942;2022-07-06T07:11:13;9.38;;;2.78;;
55815;SDS011;41744;52.404;16.942;2022-07-06T07:13:39;5.70;;;2.90;;
55815;SDS011;41744;52.404;16.942;2022-07-06T07:16:05;7.03;;;2.58;;
55815;SDS011;41744;52.404;16.942;2022-07-06T07:18:32;7.88;;;3.13;;
55815;SDS011;41744;52.404;16.942;2022-07-06T07:24:01;8.45;;;3.13;;
55815;SDS011;41744;52.404;16.942;2022-07-06T07:26:27;11.93;;;3.08;;
55815;SDS011;41744;52.404;16.942;2022-07-06T07:28:53;10.10;;;2.80;;
55815;SDS011;41744;52.404;16.942;2022-07-06T07:34:22;11.60;;;3.67;;
55815;SDS011;41744;52.404;16.942;2022-07-06T07:36:48;8.65;;;3.47;;
55815;SDS011;41744;52.404;16.942;2022-07-06T07:39:14;8.68;;;2.60;;
55815;SDS011;41744;52.404;16.942;2022-07-06T07:41:40;9.15;;;2.85;;
55815;SDS011;41744;52.404;16.942;2022-07-06T07:44:07;8.10;;;3.60;;
55815;SDS011;41744;52.404;16.942;2022-07-06T07:46:33;12.40;;;4.32;;
55815;SDS011;41744;52.404;16.942;2022-07-06T07:48:59;8.80;;;4.32;;
55815;SDS011;41744;52.404;16.942;2022-07-06T07:54:28;7.95;;;4.13;;
55815;SDS011;41744;52.404;16.942;2022-07-06T07:56:54;10.45;;;4.10;;
55815;SDS011;41744;52.404;16.942;2022-07-06T07:59:20;14.10;;;4.30;;
55815;SDS011;41744;52.404;16.942;2022-07-06T08:01:47;10.02;;;3.25;;
55815;SDS011;41744;52.404;16.942;2022-07-06T08:04:13;8.13;;;3.22;;
55815;SDS011;41744;52.404;16.942;2022-07-06T08:06:39;4.65;;;2.70;;
55815;SDS011;41744;52.404;16.942;2022-07-06T08:09:05;5.25;;;2.65;;
55815;SDS011;41744;52.404;16.942;2022-07-06T08:11:33;5.47;;;2.65;;
55815;SDS011;41744;52.404;16.942;2022-07-06T08:13:59;4.45;;;2.65;;
55815;SDS011;41744;52.404;16.942;2022-07-06T08:16:25;6.70;;;2.92;;
55815;SDS011;41744;52.404;16.942;2022-07-06T08:18:51;6.13;;;3.15;;
55815;SDS011;41744;52.404;16.942;2022-07-06T08:24:21;6.38;;;2.53;;
55815;SDS011;41744;52.404;16.942;2022-07-06T08:26:47;5.18;;;2.50;;
55815;SDS011;41744;52.404;16.942;2022-07-06T08:29:13;8.98;;;2.50;;
55815;SDS011;41744;52.404;16.942;2022-07-06T08:31:39;5.22;;;2.42;;
55815;SDS011;41744;52.404;16.942;2022-07-06T08:34:05;7.30;;;2.92;;
55815;SDS011;41744;52.404;16.942;2022-07-06T08:36:32;9.05;;;2.90;;
55815;SDS011;41744;52.404;16.942;2022-07-06T08:38:58;6.25;;;2.70;;
55815;SDS011;41744;52.404;16.942;2022-07-06T08:41:25;6.25;;;2.63;;
55815;SDS011;41744;52.404;16.942;2022-07-06T08:43:51;5.78;;;2.40;;
55815;SDS011;41744;52.404;16.942;2022-07-06T08:46:18;5.88;;;2.95;;
55815;SDS011;41744;52.404;16.942;2022-07-06T08:48:44;5.78;;;2.45;;
55815;SDS011;41744;52.404;16.942;2022-07-06T08:54:20;4.07;;;2.10;;
55815;SDS011;41744;52.404;16.942;2022-07-06T08:56:47;5.63;;;1.98;;
55815;SDS011;41744;52.404;16.942;2022-07-06T08:59:13;4.72;;;1.80;;
55815;SDS011;41744;52.404;16.942;2022-07-06T09:01:40;3.10;;;1.63;;
55815;SDS011;41744;52.404;16.942;2022-07-06T09:04:06;4.20;;;1.90;;
55815;SDS011;41744;52.404;16.942;2022-07-06T09:06:32;4.95;;;2.00;;
55815;SDS011;41744;52.404;16.942;2022-07-06T09:09:00;4.30;;;2.00;;
55815;SDS011;41744;52.404;16.942;2022-07-06T09:14:31;2.35;;;1.65;;
55815;SDS011;41744;52.404;16.942;2022-07-06T09:17:06;4.20;;;1.70;;
55815;SDS011;41744;52.404;16.942;2022-07-06T09:19:33;2.63;;;1.63;;
55815;SDS011;41744;52.404;16.942;2022-07-06T09:22:00;4.43;;;1.77;;
55815;SDS011;41744;52.404;16.942;2022-07-06T09:24:26;5.20;;;1.70;;
55815;SDS011;41744;52.404;16.942;2022-07-06T09:26:55;6.25;;;1.73;;
55815;SDS011;41744;52.404;16.942;2022-07-06T09:29:26;2.95;;;1.50;;
55815;SDS011;41744;52.404;16.942;2022-07-06T09:34:56;2.65;;;1.40;;
55815;SDS011;41744;52.404;16.942;2022-07-06T09:37:22;6.78;;;1.40;;
55815;SDS011;41744;52.404;16.942;2022-07-06T09:39:49;6.50;;;1.45;;
55815;SDS011;41744;52.404;16.942;2022-07-06T09:42:15;4.97;;;1.40;;
55815;SDS011;41744;52.404;16.942;2022-07-06T09:44:41;8.73;;;1.42;;
55815;SDS011;41744;52.404;16.942;2022-07-06T09:47:08;6.28;;;1.48;;
55815;SDS011;41744;52.404;16.942;2022-07-06T09:49:35;3.78;;;2.10;;
55815;SDS011;41744;52.404;16.942;2022-07-06T09:55:14;4.53;;;1.50;;
55815;SDS011;41744;52.404;16.942;2022-07-06T09:57:52;2.55;;;1.42;;
55815;SDS011;41744;52.404;16.942;2022-07-06T10:00:20;5.88;;;1.70;;
55815;SDS011;41744;52.404;16.942;2022-07-06T10:02:46;3.92;;;1.90;;
55815;SDS011;41744;52.404;16.942;2022-07-06T10:05:14;3.28;;;1.50;;
55815;SDS011;41744;52.404;16.942;2022-07-06T10:07:41;7.70;;;1.50;;
55815;SDS011;41744;52.404;16.942;2022-07-06T10:13:11;3.63;;;1.70;;
55815;SDS011;41744;52.404;16.942;2022-07-06T10:15:38;4.28;;;1.67;;
55815;SDS011;41744;52.404;16.942;2022-07-06T10:18:06;3.88;;;1.65;;
55815;SDS011;41744;52.404;16.942;2022-07-06T10:20:33;7.93;;;1.60;;
55815;SDS011;41744;52.404;16.942;2022-07-06T10:23:02;2.10;;;1.33;;
55815;SDS011;41744;52.404;16.942;2022-07-06T10:25:28;4.57;;;1.42;;
55815;SDS011;41744;52.404;16.942;2022-07-06T10:27:54;4.00;;;2.13;;
55815;SDS011;41744;52.404;16.942;2022-07-06T10:33:24;4.15;;;1.80;;
55815;SDS011;41744;52.404;16.942;2022-07-06T10:35:51;3.85;;;1.48;;
55815;SDS011;41744;52.404;16.942;2022-07-06T10:38:17;4.57;;;1.65;;
55815;SDS011;41744;52.404;16.942;2022-07-06T10:40:44;8.48;;;2.08;;
55815;SDS011;41744;52.404;16.942;2022-07-06T10:43:35;6.50;;;2.05;;
55815;SDS011;41744;52.404;16.942;2022-07-06T10:48:51;6.22;;;2.53;;
55815;SDS011;41744;52.404;16.942;2022-07-06T10:54:31;4.18;;;1.77;;
55815;SDS011;41744;52.404;16.942;2022-07-06T10:57:08;7.28;;;1.40;;
55815;SDS011;41744;52.404;16.942;2022-07-06T10:59:35;1.20;;;0.85;;
55815;SDS011;41744;52.404;16.942;2022-07-06T11:05:08;5.47;;;1.23;;
55815;SDS011;41744;52.404;16.942;2022-07-06T11:07:36;3.58;;;1.40;;
55815;SDS011;41744;52.404;16.942;2022-07-06T11:10:14;4.85;;;1.20;;
55815;SDS011;41744;52.404;16.942;2022-07-06T11:12:44;1.98;;;1.30;;
55815;SDS011;41744;52.404;16.942;2022-07-06T11:15:10;3.63;;;1.30;;
55815;SDS011;41744;52.404;16.942;2022-07-06T11:17:36;4.70;;;1.35;;
55815;SDS011;41744;52.404;16.942;2022-07-06T11:23:06;2.75;;;1.40;;
55815;SDS011;41744;52.404;16.942;2022-07-06T11:25:32;5.53;;;1.55;;
55815;SDS011;41744;52.404;16.942;2022-07-06T11:27:58;6.93;;;1.70;;
55815;SDS011;41744;52.404;16.942;2022-07-06T11:30:24;5.18;;;1.42;;
55815;SDS011;41744;52.404;16.942;2022-07-06T11:32:50;6.38;;;1.35;;
55815;SDS011;41744;52.404;16.942;2022-07-06T11:35:22;3.40;;;1.30;;
55815;SDS011;41744;52.404;16.942;2022-07-06T11:37:48;2.92;;;1.70;;
55815;SDS011;41744;52.404;16.942;2022-07-06T11:43:18;5.80;;;1.25;;
55815;SDS011;41744;52.404;16.942;2022-07-06T11:45:44;6.20;;;1.92;;
55815;SDS011;41744;52.404;16.942;2022-07-06T11:48:10;4.50;;;1.40;;
55815;SDS011;41744;52.404;16.942;2022-07-06T11:50:36;4.78;;;1.27;;
55815;SDS011;41744;52.404;16.942;2022-07-06T11:53:02;3.38;;;1.60;;
55815;SDS011;41744;52.404;16.942;2022-07-06T11:55:28;1.70;;;1.23;;
55815;SDS011;41744;52.404;16.942;2022-07-06T11:57:55;2.22;;;1.30;;
55815;SDS011;41744;52.404;16.942;2022-07-06T12:00:22;3.42;;;1.30;;
55815;SDS011;41744;52.404;16.942;2022-07-06T12:02:59;4.13;;;1.58;;
55815;SDS011;41744;52.404;16.942;2022-07-06T12:05:29;3.90;;;1.55;;
55815;SDS011;41744;52.404;16.942;2022-07-06T12:08:05;2.90;;;1.35;;
55815;SDS011;41744;52.404;16.942;2022-07-06T12:10:32;4.88;;;1.30;;
55815;SDS011;41744;52.404;16.942;2022-07-06T12:13:04;5.15;;;1.33;;
55815;SDS011;41744;52.404;16.942;2022-07-06T12:15:30;2.35;;;1.25;;
55815;SDS011;41744;52.404;16.942;2022-07-06T12:17:56;8.35;;;1.20;;
55815;SDS011;41744;52.404;16.942;2022-07-06T12:23:25;3.90;;;1.40;;
55815;SDS011;41744;52.404;16.942;2022-07-06T12:25:51;3.42;;;1.17;;
55815;SDS011;41744;52.404;16.942;2022-07-06T12:28:23;1.88;;;0.90;;
55815;SDS011;41744;52.404;16.942;2022-07-06T12:30:49;2.22;;;1.00;;
55815;SDS011;41744;52.404;16.942;2022-07-06T12:33:15;4.40;;;1.10;;
55815;SDS011;41744;52.404;16.942;2022-07-06T12:35:44;2.05;;;1.10;;
55815;SDS011;41744;52.404;16.942;2022-07-06T12:38:10;4.28;;;1.15;;
55815;SDS011;41744;52.404;16.942;2022-07-06T12:43:41;4.30;;;1.30;;
55815;SDS011;41744;52.404;16.942;2022-07-06T12:48:53;2.97;;;0.82;;
55815;SDS011;41744;52.404;16.942;2022-07-06T12:54:30;3.03;;;0.93;;
55815;SDS011;41744;52.404;16.942;2022-07-06T12:57:07;3.33;;;1.35;;
55815;SDS011;41744;52.404;16.942;2022-07-06T12:59:34;2.55;;;0.82;;
55815;SDS011;41744;52.404;16.942;2022-07-06T13:05:05;5.57;;;1.10;;
55815;SDS011;41744;52.404;16.942;2022-07-06T13:07:32;2.58;;;1.00;;
55815;SDS011;41744;52.404;16.942;2022-07-06T13:10:00;4.22;;;1.20;;
55815;SDS011;41744;52.404;16.942;2022-07-06T13:12:27;4.25;;;1.00;;
55815;SDS011;41744;52.404;16.942;2022-07-06T13:14:53;3.42;;;1.35;;
55815;SDS011;41744;52.404;16.942;2022-07-06T13:17:19;4.53;;;0.95;;
55815;SDS011;41744;52.404;16.942;2022-07-06T13:19:45;5.28;;;1.15;;
55815;SDS011;41744;52.404;16.942;2022-07-06T13:25:14;4.32;;;1.15;;
55815;SDS011;41744;52.404;16.942;2022-07-06T13:27:40;3.10;;;0.98;;
55815;SDS011;41744;52.404;16.942;2022-07-06T13:33:10;3.60;;;1.00;;
55815;SDS011;41744;52.404;16.942;2022-07-06T13:35:36;7.55;;;1.20;;
55815;SDS011;41744;52.404;16.942;2022-07-06T13:38:02;5.40;;;1.00;;
55815;SDS011;41744;52.404;16.942;2022-07-06T13:43:32;7.60;;;1.30;;
55815;SDS011;41744;52.404;16.942;2022-07-06T13:46:04;7.20;;;1.70;;
55815;SDS011;41744;52.404;16.942;2022-07-06T13:48:30;7.43;;;1.45;;
55815;SDS011;41744;52.404;16.942;2022-07-06T13:54:00;8.25;;;3.05;;
55815;SDS011;41744;52.404;16.942;2022-07-06T13:56:26;11.73;;;3.65;;
55815;SDS011;41744;52.404;16.942;2022-07-06T13:58:53;18.23;;;3.72;;
55815;SDS011;41744;52.404;16.942;2022-07-06T14:01:19;13.00;;;2.80;;
55815;SDS011;41744;52.404;16.942;2022-07-06T14:03:45;12.27;;;2.40;;
55815;SDS011;41744;52.404;16.942;2022-07-06T14:06:11;7.93;;;2.17;;
55815;SDS011;41744;52.404;16.942;2022-07-06T14:08:38;6.38;;;1.77;;
55815;SDS011;41744;52.404;16.942;2022-07-06T14:11:05;10.55;;;1.85;;
55815;SDS011;41744;52.404;16.942;2022-07-06T14:13:32;7.68;;;1.70;;
55815;SDS011;41744;52.404;16.942;2022-07-06T14:15:58;4.85;;;1.23;;
55815;SDS011;41744;52.404;16.942;2022-07-06T14:18:24;4.35;;;1.17;;
55815;SDS011;41744;52.404;16.942;2022-07-06T14:23:54;12.88;;;1.50;;
55815;SDS011;41744;52.404;16.942;2022-07-06T14:26:20;6.32;;;1.00;;
55815;SDS011;41744;52.404;16.942;2022-07-06T14:28:46;1.73;;;0.80;;
55815;SDS011;41744;52.404;16.942;2022-07-06T14:31:12;2.97;;;0.88;;
55815;SDS011;41744;52.404;16.942;2022-07-06T14:33:38;3.05;;;1.20;;
55815;SDS011;41744;52.404;16.942;2022-07-06T14:36:04;4.70;;;1.15;;
55815;SDS011;41744;52.404;16.942;2022-07-06T14:38:30;4.22;;;1.38;;
55815;SDS011;41744;52.404;16.942;2022-07-06T14:40:56;6.30;;;1.05;;
55815;SDS011;41744;52.404;16.942;2022-07-06T14:43:22;9.07;;;1.10;;
55815;SDS011;41744;52.404;16.942;2022-07-06T14:45:49;3.28;;;1.08;;
55815;SDS011;41744;52.404;16.942;2022-07-06T14:48:16;5.85;;;1.27;;
55815;SDS011;41744;52.404;16.942;2022-07-06T14:53:51;4.10;;;1.10;;
55815;SDS011;41744;52.404;16.942;2022-07-06T14:56:17;5.22;;;1.30;;
55815;SDS011;41744;52.404;16.942;2022-07-06T14:58:43;6.07;;;1.10;;
55815;SDS011;41744;52.404;16.942;2022-07-06T15:01:09;9.05;;;1.48;;
55815;SDS011;41744;52.404;16.942;2022-07-06T15:03:35;7.80;;;1.27;;
55815;SDS011;41744;52.404;16.942;2022-07-06T15:06:01;7.72;;;1.13;;
55815;SDS011;41744;52.404;16.942;2022-07-06T15:08:27;15.82;;;2.42;;
55815;SDS011;41744;52.404;16.942;2022-07-06T15:10:53;4.55;;;1.17;;
55815;SDS011;41744;52.404;16.942;2022-07-06T15:13:19;7.93;;;1.38;;
55815;SDS011;41744;52.404;16.942;2022-07-06T15:15:45;3.78;;;1.40;;
55815;SDS011;41744;52.404;16.942;2022-07-06T15:18:11;9.73;;;1.70;;
55815;SDS011;41744;52.404;16.942;2022-07-06T15:23:41;7.95;;;1.42;;
55815;SDS011;41744;52.404;16.942;2022-07-06T15:26:07;5.60;;;1.10;;
55815;SDS011;41744;52.404;16.942;2022-07-06T15:28:33;8.25;;;1.08;;
55815;SDS011;41744;52.404;16.942;2022-07-06T15:30:59;3.15;;;0.93;;
55815;SDS011;41744;52.404;16.942;2022-07-06T15:33:25;3.88;;;1.05;;
55815;SDS011;41744;52.404;16.942;2022-07-06T15:35:51;2.95;;;1.42;;
55815;SDS011;41744;52.404;16.942;2022-07-06T15:38:17;3.70;;;1.30;;
55815;SDS011;41744;52.404;16.942;2022-07-06T15:40:43;1.63;;;0.90;;
55815;SDS011;41744;52.404;16.942;2022-07-06T15:43:12;5.47;;;0.93;;
55815;SDS011;41744;52.404;16.942;2022-07-06T15:45:38;0.95;;;0.80;;
55815;SDS011;41744;52.404;16.942;2022-07-06T15:48:04;1.73;;;0.70;;
55815;SDS011;41744;52.404;16.942;2022-07-06T15:53:40;5.25;;;1.10;;
55815;SDS011;41744;52.404;16.942;2022-07-06T15:56:10;2.15;;;0.70;;
55815;SDS011;41744;52.404;16.942;2022-07-06T15:58:37;2.97;;;1.00;;
55815;SDS011;41744;52.404;16.942;2022-07-06T16:01:03;1.92;;;0.65;;
55815;SDS011;41744;52.404;16.942;2022-07-06T16:03:29;5.40;;;0.90;;
55815;SDS011;41744;52.404;16.942;2022-07-06T16:05:55;1.67;;;0.80;;
55815;SDS011;41744;52.404;16.942;2022-07-06T16:08:21;1.92;;;0.80;;
55815;SDS011;41744;52.404;16.942;2022-07-06T16:13:52;6.55;;;1.00;;
55815;SDS011;41744;52.404;16.942;2022-07-06T16:16:18;5.93;;;1.10;;
55815;SDS011;41744;52.404;16.942;2022-07-06T16:18:44;2.25;;;0.90;;
55815;SDS011;41744;52.404;16.942;2022-07-06T16:21:10;3.17;;;1.00;;
55815;SDS011;41744;52.404;16.942;2022-07-06T16:23:36;4.90;;;0.80;;
55815;SDS011;41744;52.404;16.942;2022-07-06T16:26:02;4.00;;;0.90;;
55815;SDS011;41744;52.404;16.942;2022-07-06T16:28:28;3.50;;;1.00;;
55815;SDS011;41744;52.404;16.942;2022-07-06T16:30:54;3.88;;;0.90;;
55815;SDS011;41744;52.404;16.942;2022-07-06T16:33:20;3.88;;;0.95;;
55815;SDS011;41744;52.404;16.942;2022-07-06T16:35:46;3.10;;;0.90;;
55815;SDS011;41744;52.404;16.942;2022-07-06T16:38:13;1.58;;;0.68;;
55815;SDS011;41744;52.404;16.942;2022-07-06T16:43:49;1.67;;;0.80;;
55815;SDS011;41744;52.404;16.942;2022-07-06T16:46:15;3.13;;;0.77;;
55815;SDS011;41744;52.404;16.942;2022-07-06T16:48:41;3.03;;;1.10;;
55815;SDS011;41744;52.404;16.942;2022-07-06T16:51:07;5.47;;;1.15;;
55815;SDS011;41744;52.404;16.942;2022-07-06T16:53:33;2.95;;;0.80;;